sensor_id;sensor_type;location;lat;lon;timestamp;temperature;humidity
14248;DHT22;7208;49.826;6.004;2022-10-16T00:01:28;13.00;99.90
14248;DHT22;7208;49.826;6.004;2022-10-16T00:03:55;13.00;99.90
14248;DHT22;7208;49.826;6.004;2022-10-16T00:06:22;13.00;99.90
14248;DHT22;7208;49.826;6.004;2022-10-16T00:08:48;13.00;99.90
14248;DHT22;7208;49.826;6.004;2022-10-16T00:11:16;13.00;99.90
14248;DHT22;7208;49.826;6.004;2022-10-16T00:13:44;13.00;99.90
14248;DHT22;7208;49.826;6.004;2022-10-16T00:16:12;13.00;99.90
14248;DHT22;7208;49.826;6.004;2022-10-16T00:18:38;13.00;99.90
14248;DHT22;7208;49.826;6.004;2022-10-16T00:21:19;13.00;99.90
14248;DHT22;7208;49.826;6.004;2022-10-16T00:23:45;13.00;99.90
14248;DHT22;7208;49.826;6.004;2022-10-16T00:26:15;13.00;99.90
14248;DHT22;7208;49.826;6.004;2022-10-16T00:28:41;13.10;99.90
14248;DHT22;7208;49.826;6.004;2022-10-16T00:31:10;13.10;99.90
14248;DHT22;7208;49.826;6.004;2022-10-16T00:33:37;13.10;99.90
14248;DHT22;7208;49.826;6.004;2022-10-16T00:36:04;13.10;99.90
14248;DHT22;7208;49.826;6.004;2022-10-16T00:38:30;13.10;99.90
14248;DHT22;7208;49.826;6.004;2022-10-16T00:40:56;13.10;99.90
14248;DHT22;7208;49.826;6.004;2022-10-16T00:46:24;13.10;99.90
14248;DHT22;7208;49.826;6.004;2022-10-16T00:49:12;13.10;99.90
14248;DHT22;7208;49.826;6.004;2022-10-16T00:51:43;13.10;99.90
14248;DHT22;7208;49.826;6.004;2022-10-16T00:54:42;13.20;99.90
14248;DHT22;7208;49.826;6.004;2022-10-16T00:57:08;13.20;99.90
14248;DHT22;7208;49.826;6.004;2022-10-16T00:59:41;13.20;99.90
14248;DHT22;7208;49.826;6.004;2022-10-16T01:02:11;13.20;99.90
14248;DHT22;7208;49.826;6.004;2022-10-16T01:04:50;13.20;99.90
14248;DHT22;7208;49.826;6.004;2022-10-16T01:07:38;13.20;99.90
14248;DHT22;7208;49.826;6.004;2022-10-16T01:16:09;13.20;99.90
14248;DHT22;7208;49.826;6.004;2022-10-16T01:23:23;13.20;99.90
14248;DHT22;7208;49.826;6.004;2022-10-16T01:28:58;13.20;99.90
14248;DHT22;7208;49.826;6.004;2022-10-16T01:31:31;13.20;99.90
14248;DHT22;7208;49.826;6.004;2022-10-16T01:34:05;13.20;99.90
14248;DHT22;7208;49.826;6.004;2022-10-16T01:36:42;13.20;99.90
14248;DHT22;7208;49.826;6.004;2022-10-16T01:39:10;13.20;99.90
14248;DHT22;7208;49.826;6.004;2022-10-16T01:41:47;13.20;99.90
14248;DHT22;7208;49.826;6.004;2022-10-16T01:44:21;13.20;99.90
14248;DHT22;7208;49.826;6.004;2022-10-16T01:46:50;13.20;99.90
14248;DHT22;7208;49.826;6.004;2022-10-16T01:49:17;13.20;99.90
14248;DHT22;7208;49.826;6.004;2022-10-16T01:51:46;13.20;99.90
14248;DHT22;7208;49.826;6.004;2022-10-16T01:54:14;13.10;99.90
14248;DHT22;7208;49.826;6.004;2022-10-16T01:56:42;13.20;99.90
14248;DHT22;7208;49.826;6.004;2022-10-16T01:59:13;13.10;99.90
14248;DHT22;7208;49.826;6.004;2022-10-16T02:01:44;13.20;99.90
14248;DHT22;7208;49.826;6.004;2022-10-16T02:04:18;13.20;99.90
14248;DHT22;7208;49.826;6.004;2022-10-16T02:06:46;13.10;99.90
14248;DHT22;7208;49.826;6.004;2022-10-16T02:09:11;13.10;99.90
14248;DHT22;7208;49.826;6.004;2022-10-16T02:11:37;13.10;99.90
14248;DHT22;7208;49.826;6.004;2022-10-16T02:14:05;13.20;99.90
14248;DHT22;7208;49.826;6.004;2022-10-16T02:16:44;13.20;99.90
14248;DHT22;7208;49.826;6.004;2022-10-16T02:19:13;13.10;99.90
14248;DHT22;7208;49.826;6.004;2022-10-16T02:21:56;13.10;99.90
14248;DHT22;7208;49.826;6.004;2022-10-16T02:30:09;13.10;99.90
14248;DHT22;7208;49.826;6.004;2022-10-16T02:32:41;13.10;99.90
14248;DHT22;7208;49.826;6.004;2022-10-16T02:35:08;13.10;99.90
14248;DHT22;7208;49.826;6.004;2022-10-16T02:37:34;13.10;99.90
14248;DHT22;7208;49.826;6.004;2022-10-16T02:40:01;13.10;99.90
14248;DHT22;7208;49.826;6.004;2022-10-16T02:42:32;13.10;99.90
14248;DHT22;7208;49.826;6.004;2022-10-16T02:44:58;13.10;99.90
14248;DHT22;7208;49.826;6.004;2022-10-16T02:47:24;13.10;99.90
14248;DHT22;7208;49.826;6.004;2022-10-16T02:49:50;13.10;99.90
14248;DHT22;7208;49.826;6.004;2022-10-16T02:52:15;13.10;99.90
14248;DHT22;7208;49.826;6.004;2022-10-16T02:54:41;13.10;99.90
14248;DHT22;7208;49.826;6.004;2022-10-16T02:57:07;13.00;99.90
14248;DHT22;7208;49.826;6.004;2022-10-16T02:59:32;13.00;99.90
14248;DHT22;7208;49.826;6.004;2022-10-16T03:01:58;13.00;99.90
14248;DHT22;7208;49.826;6.004;2022-10-16T03:04:23;13.00;99.90
14248;DHT22;7208;49.826;6.004;2022-10-16T03:06:49;13.00;99.90
14248;DHT22;7208;49.826;6.004;2022-10-16T03:09:15;13.00;99.90
14248;DHT22;7208;49.826;6.004;2022-10-16T03:11:40;13.00;99.90
14248;DHT22;7208;49.826;6.004;2022-10-16T03:14:06;13.00;99.90
14248;DHT22;7208;49.826;6.004;2022-10-16T03:16:32;13.00;99.90
14248;DHT22;7208;49.826;6.004;2022-10-16T03:18:58;13.00;99.90
14248;DHT22;7208;49.826;6.004;2022-10-16T03:21:23;13.00;99.90
14248;DHT22;7208;49.826;6.004;2022-10-16T03:23:49;13.00;99.90
14248;DHT22;7208;49.826;6.004;2022-10-16T03:26:14;13.00;99.90
14248;DHT22;7208;49.826;6.004;2022-10-16T03:28:40;13.00;99.90
14248;DHT22;7208;49.826;6.004;2022-10-16T03:31:06;13.00;99.90
14248;DHT22;7208;49.826;6.004;2022-10-16T03:33:31;13.00;99.90
14248;DHT22;7208;49.826;6.004;2022-10-16T03:35:57;12.90;99.90
14248;DHT22;7208;49.826;6.004;2022-10-16T03:38:23;12.90;99.90
14248;DHT22;7208;49.826;6.004;2022-10-16T03:40:48;12.90;99.90
14248;DHT22;7208;49.826;6.004;2022-10-16T03:43:14;12.90;99.90
14248;DHT22;7208;49.826;6.004;2022-10-16T03:45:40;12.90;99.90
14248;DHT22;7208;49.826;6.004;2022-10-16T03:48:05;12.90;99.90
14248;DHT22;7208;49.826;6.004;2022-10-16T03:50:31;12.90;99.90
14248;DHT22;7208;49.826;6.004;2022-10-16T03:52:57;12.90;99.90
14248;DHT22;7208;49.826;6.004;2022-10-16T03:55:22;12.90;99.90
14248;DHT22;7208;49.826;6.004;2022-10-16T03:57:48;12.90;99.90
14248;DHT22;7208;49.826;6.004;2022-10-16T04:00:14;12.90;99.90
14248;DHT22;7208;49.826;6.004;2022-10-16T04:02:40;12.90;99.90
14248;DHT22;7208;49.826;6.004;2022-10-16T04:05:06;12.80;99.90
14248;DHT22;7208;49.826;6.004;2022-10-16T04:07:32;12.80;99.90
14248;DHT22;7208;49.826;6.004;2022-10-16T04:09:58;12.80;99.90
14248;DHT22;7208;49.826;6.004;2022-10-16T04:12:25;12.80;99.90
14248;DHT22;7208;49.826;6.004;2022-10-16T04:14:50;12.80;99.90
14248;DHT22;7208;49.826;6.004;2022-10-16T04:17:16;12.80;99.90
14248;DHT22;7208;49.826;6.004;2022-10-16T04:19:42;12.80;99.90
14248;DHT22;7208;49.826;6.004;2022-10-16T04:22:07;12.80;99.90
14248;DHT22;7208;49.826;6.004;2022-10-16T04:24:33;12.80;99.90
14248;DHT22;7208;49.826;6.004;2022-10-16T04:26:59;12.80;99.90
14248;DHT22;7208;49.826;6.004;2022-10-16T04:29:24;12.80;99.90
14248;DHT22;7208;49.826;6.004;2022-10-16T04:31:50;12.80;99.90
14248;DHT22;7208;49.826;6.004;2022-10-16T04:34:16;12.90;99.90
14248;DHT22;7208;49.826;6.004;2022-10-16T04:36:41;12.90;99.90
14248;DHT22;7208;49.826;6.004;2022-10-16T04:39:07;12.90;99.90
14248;DHT22;7208;49.826;6.004;2022-10-16T04:41:33;12.90;99.90
14248;DHT22;7208;49.826;6.004;2022-10-16T04:43:58;12.90;99.90
14248;DHT22;7208;49.826;6.004;2022-10-16T04:46:24;12.90;99.90
14248;DHT22;7208;49.826;6.004;2022-10-16T04:48:49;12.90;99.90
14248;DHT22;7208;49.826;6.004;2022-10-16T04:51:15;12.90;99.90
14248;DHT22;7208;49.826;6.004;2022-10-16T04:53:41;12.90;99.90
14248;DHT22;7208;49.826;6.004;2022-10-16T04:56:06;12.90;99.90
14248;DHT22;7208;49.826;6.004;2022-10-16T04:58:32;12.90;99.90
14248;DHT22;7208;49.826;6.004;2022-10-16T05:00:58;12.90;99.90
14248;DHT22;7208;49.826;6.004;2022-10-16T05:03:23;12.90;99.90
14248;DHT22;7208;49.826;6.004;2022-10-16T05:05:49;12.90;99.90
14248;DHT22;7208;49.826;6.004;2022-10-16T05:08:15;12.90;99.90
14248;DHT22;7208;49.826;6.004;2022-10-16T05:10:42;12.90;99.90
14248;DHT22;7208;49.826;6.004;2022-10-16T05:13:09;12.90;99.90
14248;DHT22;7208;49.826;6.004;2022-10-16T05:15:35;12.90;99.90
14248;DHT22;7208;49.826;6.004;2022-10-16T05:18:01;12.90;99.90
14248;DHT22;7208;49.826;6.004;2022-10-16T05:20:26;12.90;99.90
14248;DHT22;7208;49.826;6.004;2022-10-16T05:22:52;13.00;99.90
14248;DHT22;7208;49.826;6.004;2022-10-16T05:25:18;13.00;99.90
14248;DHT22;7208;49.826;6.004;2022-10-16T05:27:46;13.00;99.90
14248;DHT22;7208;49.826;6.004;2022-10-16T05:30:12;13.00;99.90
14248;DHT22;7208;49.826;6.004;2022-10-16T05:32:38;13.00;99.90
14248;DHT22;7208;49.826;6.004;2022-10-16T05:35:04;13.00;99.90
14248;DHT22;7208;49.826;6.004;2022-10-16T05:37:29;13.00;99.90
14248;DHT22;7208;49.826;6.004;2022-10-16T05:39:55;13.00;99.90
14248;DHT22;7208;49.826;6.004;2022-10-16T05:42:20;13.00;99.90
14248;DHT22;7208;49.826;6.004;2022-10-16T05:44:46;13.00;99.90
14248;DHT22;7208;49.826;6.004;2022-10-16T05:47:15;13.00;99.90
14248;DHT22;7208;49.826;6.004;2022-10-16T05:49:40;13.00;99.90
14248;DHT22;7208;49.826;6.004;2022-10-16T05:52:06;13.00;99.90
14248;DHT22;7208;49.826;6.004;2022-10-16T05:54:32;13.10;99.90
14248;DHT22;7208;49.826;6.004;2022-10-16T05:56:57;13.10;99.90
14248;DHT22;7208;49.826;6.004;2022-10-16T05:59:23;13.10;99.90
14248;DHT22;7208;49.826;6.004;2022-10-16T06:01:48;13.10;99.90
14248;DHT22;7208;49.826;6.004;2022-10-16T06:04:14;13.10;99.90
14248;DHT22;7208;49.826;6.004;2022-10-16T06:06:40;13.10;99.90
14248;DHT22;7208;49.826;6.004;2022-10-16T06:09:05;13.10;99.90
14248;DHT22;7208;49.826;6.004;2022-10-16T06:11:32;13.10;99.90
14248;DHT22;7208;49.826;6.004;2022-10-16T06:14:00;13.10;99.90
14248;DHT22;7208;49.826;6.004;2022-10-16T06:16:28;13.10;99.90
14248;DHT22;7208;49.826;6.004;2022-10-16T06:18:55;13.10;99.90
14248;DHT22;7208;49.826;6.004;2022-10-16T06:21:26;13.10;99.90
14248;DHT22;7208;49.826;6.004;2022-10-16T06:23:53;13.20;99.90
14248;DHT22;7208;49.826;6.004;2022-10-16T06:26:21;13.20;99.90
14248;DHT22;7208;49.826;6.004;2022-10-16T06:28:48;13.20;99.90
14248;DHT22;7208;49.826;6.004;2022-10-16T06:31:15;13.20;99.90
14248;DHT22;7208;49.826;6.004;2022-10-16T06:33:41;13.20;99.90
14248;DHT22;7208;49.826;6.004;2022-10-16T06:36:12;13.20;99.90
14248;DHT22;7208;49.826;6.004;2022-10-16T06:38:38;13.30;99.90
14248;DHT22;7208;49.826;6.004;2022-10-16T06:41:05;13.30;99.90
14248;DHT22;7208;49.826;6.004;2022-10-16T06:43:31;13.30;99.90
14248;DHT22;7208;49.826;6.004;2022-10-16T06:45:58;13.30;99.90
14248;DHT22;7208;49.826;6.004;2022-10-16T06:48:25;13.40;99.90
14248;DHT22;7208;49.826;6.004;2022-10-16T06:53:30;13.40;99.90
14248;DHT22;7208;49.826;6.004;2022-10-16T06:55:56;13.40;99.90
14248;DHT22;7208;49.826;6.004;2022-10-16T06:58:22;13.50;99.90
14248;DHT22;7208;49.826;6.004;2022-10-16T07:00:48;13.50;99.90
14248;DHT22;7208;49.826;6.004;2022-10-16T07:03:14;13.50;99.90
14248;DHT22;7208;49.826;6.004;2022-10-16T07:05:41;13.50;99.90
14248;DHT22;7208;49.826;6.004;2022-10-16T07:08:07;13.50;99.90
14248;DHT22;7208;49.826;6.004;2022-10-16T07:10:33;13.50;99.90
14248;DHT22;7208;49.826;6.004;2022-10-16T07:12:59;13.60;99.90
14248;DHT22;7208;49.826;6.004;2022-10-16T07:15:25;13.60;99.90
14248;DHT22;7208;49.826;6.004;2022-10-16T07:17:51;13.60;99.90
14248;DHT22;7208;49.826;6.004;2022-10-16T07:20:18;13.60;99.90
14248;DHT22;7208;49.826;6.004;2022-10-16T07:22:43;13.60;99.90
14248;DHT22;7208;49.826;6.004;2022-10-16T07:25:09;13.70;99.90
14248;DHT22;7208;49.826;6.004;2022-10-16T07:27:36;13.70;99.90
14248;DHT22;7208;49.826;6.004;2022-10-16T07:30:02;13.80;99.90
14248;DHT22;7208;49.826;6.004;2022-10-16T07:32:28;13.80;99.90
14248;DHT22;7208;49.826;6.004;2022-10-16T07:34:53;13.70;99.90
14248;DHT22;7208;49.826;6.004;2022-10-16T07:37:21;13.80;99.90
14248;DHT22;7208;49.826;6.004;2022-10-16T07:39:46;13.90;99.90
14248;DHT22;7208;49.826;6.004;2022-10-16T07:42:12;13.90;99.90
14248;DHT22;7208;49.826;6.004;2022-10-16T07:44:38;14.00;99.90
14248;DHT22;7208;49.826;6.004;2022-10-16T07:47:03;14.00;99.90
14248;DHT22;7208;49.826;6.004;2022-10-16T07:49:29;14.00;99.90
14248;DHT22;7208;49.826;6.004;2022-10-16T07:51:55;14.10;99.90
14248;DHT22;7208;49.826;6.004;2022-10-16T07:54:20;14.10;99.90
14248;DHT22;7208;49.826;6.004;2022-10-16T07:56:46;14.20;99.90
14248;DHT22;7208;49.826;6.004;2022-10-16T07:59:12;14.10;99.90
14248;DHT22;7208;49.826;6.004;2022-10-16T08:01:37;14.10;99.90
14248;DHT22;7208;49.826;6.004;2022-10-16T08:04:03;14.10;99.90
14248;DHT22;7208;49.826;6.004;2022-10-16T08:06:28;14.10;99.90
14248;DHT22;7208;49.826;6.004;2022-10-16T08:08:56;14.10;99.90
14248;DHT22;7208;49.826;6.004;2022-10-16T08:11:21;14.20;99.90
14248;DHT22;7208;49.826;6.004;2022-10-16T08:13:48;14.30;99.90
14248;DHT22;7208;49.826;6.004;2022-10-16T08:16:13;14.30;99.90
14248;DHT22;7208;49.826;6.004;2022-10-16T08:18:40;14.40;99.90
14248;DHT22;7208;49.826;6.004;2022-10-16T08:21:07;14.60;99.90
14248;DHT22;7208;49.826;6.004;2022-10-16T08:23:36;14.70;99.90
14248;DHT22;7208;49.826;6.004;2022-10-16T08:26:05;15.00;99.90
14248;DHT22;7208;49.826;6.004;2022-10-16T08:28:31;15.00;99.90
14248;DHT22;7208;49.826;6.004;2022-10-16T08:31:05;14.90;99.90
14248;DHT22;7208;49.826;6.004;2022-10-16T08:33:30;14.90;99.90
14248;DHT22;7208;49.826;6.004;2022-10-16T08:35:56;14.90;99.90
14248;DHT22;7208;49.826;6.004;2022-10-16T08:38:22;14.90;99.90
14248;DHT22;7208;49.826;6.004;2022-10-16T08:40:47;14.90;99.90
14248;DHT22;7208;49.826;6.004;2022-10-16T08:48:53;15.00;99.90
14248;DHT22;7208;49.826;6.004;2022-10-16T08:51:35;15.10;99.90
14248;DHT22;7208;49.826;6.004;2022-10-16T08:54:14;15.30;99.90
14248;DHT22;7208;49.826;6.004;2022-10-16T08:56:41;15.70;99.90
14248;DHT22;7208;49.826;6.004;2022-10-16T08:59:10;15.90;99.90
14248;DHT22;7208;49.826;6.004;2022-10-16T09:01:41;15.80;99.90
14248;DHT22;7208;49.826;6.004;2022-10-16T09:07:29;16.20;99.90
14248;DHT22;7208;49.826;6.004;2022-10-16T09:13:07;16.50;99.90
14248;DHT22;7208;49.826;6.004;2022-10-16T09:15:41;16.60;99.90
14248;DHT22;7208;49.826;6.004;2022-10-16T09:23:37;16.40;99.90
14248;DHT22;7208;49.826;6.004;2022-10-16T09:26:03;17.00;99.90
14248;DHT22;7208;49.826;6.004;2022-10-16T09:28:30;16.80;99.90
14248;DHT22;7208;49.826;6.004;2022-10-16T09:30:56;16.70;99.90
14248;DHT22;7208;49.826;6.004;2022-10-16T09:33:25;16.60;99.90
14248;DHT22;7208;49.826;6.004;2022-10-16T09:35:55;16.50;99.90
14248;DHT22;7208;49.826;6.004;2022-10-16T09:38:27;16.60;99.90
14248;DHT22;7208;49.826;6.004;2022-10-16T09:40:54;16.60;99.90
14248;DHT22;7208;49.826;6.004;2022-10-16T09:46:05;16.50;99.90
14248;DHT22;7208;49.826;6.004;2022-10-16T09:48:42;16.40;99.90
14248;DHT22;7208;49.826;6.004;2022-10-16T09:51:25;16.60;99.90
14248;DHT22;7208;49.826;6.004;2022-10-16T09:53:56;16.90;99.90
14248;DHT22;7208;49.826;6.004;2022-10-16T09:56:27;17.20;99.90
14248;DHT22;7208;49.826;6.004;2022-10-16T09:58:59;17.50;99.90
14248;DHT22;7208;49.826;6.004;2022-10-16T10:01:39;18.00;99.90
14248;DHT22;7208;49.826;6.004;2022-10-16T10:04:07;18.30;99.90
14248;DHT22;7208;49.826;6.004;2022-10-16T10:06:45;18.50;99.90
14248;DHT22;7208;49.826;6.004;2022-10-16T10:09:37;18.70;99.90
14248;DHT22;7208;49.826;6.004;2022-10-16T10:12:04;18.70;99.90
14248;DHT22;7208;49.826;6.004;2022-10-16T10:14:35;18.00;99.90
14248;DHT22;7208;49.826;6.004;2022-10-16T10:17:14;17.80;99.90
14248;DHT22;7208;49.826;6.004;2022-10-16T10:19:47;17.50;99.90
14248;DHT22;7208;49.826;6.004;2022-10-16T10:23:13;17.40;99.90
14248;DHT22;7208;49.826;6.004;2022-10-16T10:36:04;17.20;99.90
14248;DHT22;7208;49.826;6.004;2022-10-16T10:38:58;17.50;99.90
14248;DHT22;7208;49.826;6.004;2022-10-16T10:46:51;17.70;99.90
14248;DHT22;7208;49.826;6.004;2022-10-16T10:49:48;18.20;99.90
14248;DHT22;7208;49.826;6.004;2022-10-16T10:55:54;18.60;99.90
14248;DHT22;7208;49.826;6.004;2022-10-16T11:06:31;18.40;99.90
14248;DHT22;7208;49.826;6.004;2022-10-16T11:09:02;18.10;99.90
14248;DHT22;7208;49.826;6.004;2022-10-16T11:14:18;17.90;99.90
14248;DHT22;7208;49.826;6.004;2022-10-16T11:22:19;17.80;99.90
14248;DHT22;7208;49.826;6.004;2022-10-16T11:31:17;18.00;99.90
14248;DHT22;7208;49.826;6.004;2022-10-16T11:34:01;17.90;99.90
14248;DHT22;7208;49.826;6.004;2022-10-16T11:36:36;18.10;99.90
14248;DHT22;7208;49.826;6.004;2022-10-16T11:41:49;17.70;99.90
14248;DHT22;7208;49.826;6.004;2022-10-16T11:50:26;17.70;99.90
14248;DHT22;7208;49.826;6.004;2022-10-16T11:55:42;18.00;99.90
14248;DHT22;7208;49.826;6.004;2022-10-16T12:01:03;18.40;99.90
14248;DHT22;7208;49.826;6.004;2022-10-16T12:03:46;18.10;99.90
14248;DHT22;7208;49.826;6.004;2022-10-16T12:06:39;18.30;99.90
14248;DHT22;7208;49.826;6.004;2022-10-16T12:09:14;18.40;99.90
14248;DHT22;7208;49.826;6.004;2022-10-16T12:11:40;18.50;99.90
14248;DHT22;7208;49.826;6.004;2022-10-16T12:14:18;18.50;99.90
14248;DHT22;7208;49.826;6.004;2022-10-16T12:19:20;18.70;99.90
14248;DHT22;7208;49.826;6.004;2022-10-16T12:21:46;18.70;99.90
14248;DHT22;7208;49.826;6.004;2022-10-16T12:26:56;18.60;99.90
14248;DHT22;7208;49.826;6.004;2022-10-16T12:31:50;18.70;99.90
14248;DHT22;7208;49.826;6.004;2022-10-16T12:34:28;18.60;99.90
14248;DHT22;7208;49.826;6.004;2022-10-16T12:36:55;18.60;99.90
14248;DHT22;7208;49.826;6.004;2022-10-16T12:39:23;18.40;99.90
14248;DHT22;7208;49.826;6.004;2022-10-16T12:42:01;18.20;99.90
14248;DHT22;7208;49.826;6.004;2022-10-16T12:44:32;18.20;99.90
14248;DHT22;7208;49.826;6.004;2022-10-16T12:46:58;18.20;99.90
14248;DHT22;7208;49.826;6.004;2022-10-16T12:49:36;17.90;99.90
14248;DHT22;7208;49.826;6.004;2022-10-16T12:52:03;17.80;99.90
14248;DHT22;7208;49.826;6.004;2022-10-16T12:54:36;17.70;99.90
14248;DHT22;7208;49.826;6.004;2022-10-16T12:57:32;17.60;99.90
14248;DHT22;7208;49.826;6.004;2022-10-16T13:17:06;17.50;99.90
14248;DHT22;7208;49.826;6.004;2022-10-16T13:22:37;17.60;99.90
14248;DHT22;7208;49.826;6.004;2022-10-16T13:25:40;17.80;99.90
14248;DHT22;7208;49.826;6.004;2022-10-16T13:28:08;17.90;99.90
14248;DHT22;7208;49.826;6.004;2022-10-16T13:30:52;18.00;99.90
14248;DHT22;7208;49.826;6.004;2022-10-16T13:35:54;18.00;99.90
14248;DHT22;7208;49.826;6.004;2022-10-16T13:38:25;17.90;99.90
14248;DHT22;7208;49.826;6.004;2022-10-16T13:40:56;17.80;99.90
14248;DHT22;7208;49.826;6.004;2022-10-16T13:46:06;17.70;99.90
14248;DHT22;7208;49.826;6.004;2022-10-16T13:48:33;17.70;99.90
14248;DHT22;7208;49.826;6.004;2022-10-16T13:51:05;17.70;99.90
14248;DHT22;7208;49.826;6.004;2022-10-16T13:53:32;17.70;99.90
14248;DHT22;7208;49.826;6.004;2022-10-16T13:55:58;17.60;99.90
14248;DHT22;7208;49.826;6.004;2022-10-16T13:58:25;17.60;99.90
14248;DHT22;7208;49.826;6.004;2022-10-16T14:01:05;17.70;99.90
14248;DHT22;7208;49.826;6.004;2022-10-16T14:03:37;17.80;99.90
14248;DHT22;7208;49.826;6.004;2022-10-16T14:06:05;17.90;99.90
14248;DHT22;7208;49.826;6.004;2022-10-16T14:08:34;17.90;99.90
14248;DHT22;7208;49.826;6.004;2022-10-16T14:11:01;17.90;99.90
14248;DHT22;7208;49.826;6.004;2022-10-16T14:13:36;18.00;99.90
14248;DHT22;7208;49.826;6.004;2022-10-16T14:16:06;18.10;99.90
14248;DHT22;7208;49.826;6.004;2022-10-16T14:18:33;18.10;99.90
14248;DHT22;7208;49.826;6.004;2022-10-16T14:21:04;18.00;99.90
14248;DHT22;7208;49.826;6.004;2022-10-16T14:26:16;18.00;99.90
14248;DHT22;7208;49.826;6.004;2022-10-16T14:28:43;17.90;99.90
14248;DHT22;7208;49.826;6.004;2022-10-16T14:31:31;17.80;99.90
14248;DHT22;7208;49.826;6.004;2022-10-16T14:33:58;17.80;99.90
14248;DHT22;7208;49.826;6.004;2022-10-16T14:36:26;17.50;99.90
14248;DHT22;7208;49.826;6.004;2022-10-16T14:39:04;17.50;99.90
14248;DHT22;7208;49.826;6.004;2022-10-16T14:41:31;17.60;99.90
14248;DHT22;7208;49.826;6.004;2022-10-16T14:44:10;17.60;99.90
14248;DHT22;7208;49.826;6.004;2022-10-16T14:46:39;17.40;99.90
14248;DHT22;7208;49.826;6.004;2022-10-16T14:51:34;17.40;99.90
14248;DHT22;7208;49.826;6.004;2022-10-16T14:53:59;17.40;99.90
14248;DHT22;7208;49.826;6.004;2022-10-16T14:56:30;17.30;99.90
14248;DHT22;7208;49.826;6.004;2022-10-16T14:58:58;17.20;99.90
14248;DHT22;7208;49.826;6.004;2022-10-16T15:01:24;17.20;99.90
14248;DHT22;7208;49.826;6.004;2022-10-16T15:03:49;17.20;99.90
14248;DHT22;7208;49.826;6.004;2022-10-16T15:06:17;17.20;99.90
14248;DHT22;7208;49.826;6.004;2022-10-16T15:08:43;17.30;99.90
14248;DHT22;7208;49.826;6.004;2022-10-16T15:11:14;17.30;99.90
14248;DHT22;7208;49.826;6.004;2022-10-16T15:13:40;17.50;99.90
14248;DHT22;7208;49.826;6.004;2022-10-16T15:16:14;17.60;99.90
14248;DHT22;7208;49.826;6.004;2022-10-16T15:18:40;17.50;99.90
14248;DHT22;7208;49.826;6.004;2022-10-16T15:21:06;17.50;99.90
14248;DHT22;7208;49.826;6.004;2022-10-16T15:23:32;17.50;99.90
14248;DHT22;7208;49.826;6.004;2022-10-16T15:25:57;17.50;99.90
14248;DHT22;7208;49.826;6.004;2022-10-16T15:28:24;17.50;99.90
14248;DHT22;7208;49.826;6.004;2022-10-16T15:30:52;17.50;99.90
14248;DHT22;7208;49.826;6.004;2022-10-16T15:33:24;17.50;99.90
14248;DHT22;7208;49.826;6.004;2022-10-16T15:35:52;17.50;99.90
14248;DHT22;7208;49.826;6.004;2022-10-16T15:38:20;17.60;99.90
14248;DHT22;7208;49.826;6.004;2022-10-16T15:40:47;17.50;99.90
14248;DHT22;7208;49.826;6.004;2022-10-16T15:43:13;17.40;99.90
14248;DHT22;7208;49.826;6.004;2022-10-16T15:45:40;17.40;99.90
14248;DHT22;7208;49.826;6.004;2022-10-16T15:48:05;17.30;99.90
14248;DHT22;7208;49.826;6.004;2022-10-16T15:50:32;17.30;99.90
14248;DHT22;7208;49.826;6.004;2022-10-16T15:52:58;17.30;99.90
14248;DHT22;7208;49.826;6.004;2022-10-16T15:55:24;17.20;99.90
14248;DHT22;7208;49.826;6.004;2022-10-16T15:57:50;17.20;99.90
14248;DHT22;7208;49.826;6.004;2022-10-16T16:00:17;17.20;99.90
14248;DHT22;7208;49.826;6.004;2022-10-16T16:02:48;17.10;99.90
14248;DHT22;7208;49.826;6.004;2022-10-16T16:05:15;17.00;99.90
14248;DHT22;7208;49.826;6.004;2022-10-16T16:07:41;17.00;99.90
14248;DHT22;7208;49.826;6.004;2022-10-16T16:10:09;16.90;99.90
14248;DHT22;7208;49.826;6.004;2022-10-16T16:12:35;16.90;99.90
14248;DHT22;7208;49.826;6.004;2022-10-16T16:15:02;16.80;99.90
14248;DHT22;7208;49.826;6.004;2022-10-16T16:17:30;16.70;99.90
14248;DHT22;7208;49.826;6.004;2022-10-16T16:19:56;16.70;99.90
14248;DHT22;7208;49.826;6.004;2022-10-16T16:22:21;16.70;99.90
14248;DHT22;7208;49.826;6.004;2022-10-16T16:24:47;16.70;99.90
14248;DHT22;7208;49.826;6.004;2022-10-16T16:27:12;16.60;99.90
14248;DHT22;7208;49.826;6.004;2022-10-16T16:29:39;16.60;99.90
14248;DHT22;7208;49.826;6.004;2022-10-16T16:32:05;16.60;99.90
14248;DHT22;7208;49.826;6.004;2022-10-16T16:34:30;16.50;99.90
14248;DHT22;7208;49.826;6.004;2022-10-16T16:36:56;16.50;99.90
14248;DHT22;7208;49.826;6.004;2022-10-16T16:39:22;16.40;99.90
14248;DHT22;7208;49.826;6.004;2022-10-16T16:41:48;16.40;99.90
14248;DHT22;7208;49.826;6.004;2022-10-16T16:44:15;16.40;99.90
14248;DHT22;7208;49.826;6.004;2022-10-16T16:46:42;16.40;99.90
14248;DHT22;7208;49.826;6.004;2022-10-16T16:49:10;16.40;99.90
14248;DHT22;7208;49.826;6.004;2022-10-16T16:51:37;16.40;99.90
14248;DHT22;7208;49.826;6.004;2022-10-16T16:54:04;16.30;99.90
14248;DHT22;7208;49.826;6.004;2022-10-16T16:56:30;16.30;99.90
14248;DHT22;7208;49.826;6.004;2022-10-16T16:58:56;16.30;99.90
14248;DHT22;7208;49.826;6.004;2022-10-16T17:01:24;16.20;99.90
14248;DHT22;7208;49.826;6.004;2022-10-16T17:03:52;16.20;99.90
14248;DHT22;7208;49.826;6.004;2022-10-16T17:06:24;16.10;99.90
14248;DHT22;7208;49.826;6.004;2022-10-16T17:08:50;16.00;99.90
14248;DHT22;7208;49.826;6.004;2022-10-16T17:11:21;15.90;99.90
14248;DHT22;7208;49.826;6.004;2022-10-16T17:13:48;15.70;99.90
14248;DHT22;7208;49.826;6.004;2022-10-16T17:16:15;15.60;99.90
14248;DHT22;7208;49.826;6.004;2022-10-16T17:18:41;15.50;99.90
14248;DHT22;7208;49.826;6.004;2022-10-16T17:21:08;15.40;99.90
14248;DHT22;7208;49.826;6.004;2022-10-16T17:23:36;15.40;99.90
14248;DHT22;7208;49.826;6.004;2022-10-16T17:26:13;15.30;99.90
14248;DHT22;7208;49.826;6.004;2022-10-16T17:28:39;15.20;99.90
14248;DHT22;7208;49.826;6.004;2022-10-16T17:31:17;15.10;99.90
14248;DHT22;7208;49.826;6.004;2022-10-16T17:33:44;15.10;99.90
14248;DHT22;7208;49.826;6.004;2022-10-16T17:36:10;15.10;99.90
14248;DHT22;7208;49.826;6.004;2022-10-16T17:38:39;15.10;99.90
14248;DHT22;7208;49.826;6.004;2022-10-16T17:41:16;15.20;99.90
14248;DHT22;7208;49.826;6.004;2022-10-16T17:43:42;15.20;99.90
14248;DHT22;7208;49.826;6.004;2022-10-16T17:46:08;15.30;99.90
14248;DHT22;7208;49.826;6.004;2022-10-16T17:48:42;15.30;99.90
14248;DHT22;7208;49.826;6.004;2022-10-16T17:51:10;15.30;99.90
14248;DHT22;7208;49.826;6.004;2022-10-16T17:53:37;15.40;99.90
14248;DHT22;7208;49.826;6.004;2022-10-16T17:58:29;15.40;99.90
14248;DHT22;7208;49.826;6.004;2022-10-16T18:00:54;15.40;99.90
14248;DHT22;7208;49.826;6.004;2022-10-16T18:03:20;15.40;99.90
14248;DHT22;7208;49.826;6.004;2022-10-16T18:05:46;15.40;99.90
14248;DHT22;7208;49.826;6.004;2022-10-16T18:08:11;15.50;99.90
14248;DHT22;7208;49.826;6.004;2022-10-16T18:10:45;15.40;99.90
14248;DHT22;7208;49.826;6.004;2022-10-16T18:13:12;15.40;99.90
14248;DHT22;7208;49.826;6.004;2022-10-16T18:15:37;15.30;99.90
14248;DHT22;7208;49.826;6.004;2022-10-16T18:18:03;15.20;99.90